Time;durP1;ratioP1;P1;durP2;ratioP2;P2;SDS_P1;SDS_P2;PMS_P1;PMS_P2;Temp;Humidity;BMP_temperature;BMP_pressure;BME280_temperature;BME280_humidity;BME280_pressure;Samples;Min_cycle;Max_cycle;Signal;HPM_P1;HPM_P2
2022/11/15 00:01:18;;;;;;;15.70;11.30;;;;;;;9.92;100.00;96281.38;5096615;28;20076;-46
2022/11/15 00:03:46;;;;;;;;;;;;;;;10.20;100.00;96284.84;5097570;28;20082;-43
2022/11/15 00:06:15;;;;;;;17.63;11.93;;;;;;;10.13;100.00;96284.59;5099046;28;19956;-43
2022/11/15 00:08:44;;;;;;;16.33;12.13;;;;;;;10.06;100.00;96290.59;5096945;28;20446;-43
2022/11/15 00:11:13;;;;;;;15.43;11.43;;;;;;;10.21;100.00;96283.88;5094941;28;20536;-43
2022/11/15 00:13:42;;;;;;;15.80;11.57;;;;;;;10.17;100.00;96280.69;5096743;28;20457;-44
2022/11/15 00:16:11;;;;;;;15.30;11.68;;;;;;;10.06;100.00;96283.53;5099459;28;20071;-49
2022/11/15 00:18:39;;;;;;;14.93;11.50;;;;;;;10.09;100.00;96282.41;5100751;28;20064;-46
2022/11/15 00:21:12;;;;;;;14.98;11.13;;;;;;;10.17;100.00;96277.22;5095544;28;20548;-46
2022/11/15 00:23:42;;;;;;;15.02;11.63;;;;;;;10.24;100.00;96278.31;5103468;28;20066;-44
2022/11/15 00:26:12;;;;;;;15.40;11.53;;;;;;;10.31;100.00;96273.31;5105302;28;20674;-43
2022/11/15 00:28:41;;;;;;;;;;;;;;;10.45;100.00;96270.16;5105015;28;20063;-47
2022/11/15 00:31:12;;;;;;;16.25;11.77;;;;;;;10.33;100.00;96269.56;5098612;28;19955;-42
2022/11/15 00:33:40;;;;;;;16.83;11.68;;;;;;;10.23;100.00;96261.66;5098503;28;20083;-44
2022/11/15 00:36:10;;;;;;;15.65;11.25;;;;;;;10.09;100.00;96262.16;5102810;28;20071;-42
2022/11/15 00:38:40;;;;;;;16.10;12.20;;;;;;;9.25;100.00;96275.31;5109646;28;20518;-42
2022/11/15 00:41:10;;;;;;;14.65;11.38;;;;;;;9.55;100.00;96265.56;5106893;28;20087;-44
2022/11/15 00:43:39;;;;;;;15.70;11.03;;;;;;;9.30;100.00;96273.09;5106912;28;20083;-44
2022/11/15 00:46:09;;;;;;;18.15;11.65;;;;;;;9.38;100.00;96265.31;5099956;28;20079;-46
2022/11/15 00:48:38;;;;;;;14.98;11.20;;;;;;;9.71;100.00;96261.34;5104574;28;20075;-47
2022/11/15 00:51:06;;;;;;;17.75;11.38;;;;;;;9.79;100.00;96265.06;5103120;28;20079;-44
2022/11/15 00:53:35;;;;;;;13.93;10.77;;;;;;;9.82;100.00;96260.34;5101422;28;20476;-45
2022/11/15 00:56:03;;;;;;;14.70;11.10;;;;;;;9.52;100.00;96267.50;5102660;28;20075;-49
2022/11/15 00:58:33;;;;;;;17.52;11.93;;;;;;;9.93;100.00;96261.94;5101245;28;20079;-51
2022/11/15 01:01:08;;;;;;;14.70;11.37;;;;;;;10.02;100.00;96250.56;5098714;28;20089;-42
2022/11/15 01:03:38;;;;;;;15.23;11.70;;;;;;;9.96;100.00;96251.97;5101881;28;20079;-50
2022/11/15 01:06:07;;;;;;;16.25;11.80;;;;;;;9.93;100.00;96246.16;5102934;28;20071;-49
2022/11/15 01:08:35;;;;;;;15.05;11.82;;;;;;;9.67;100.00;96253.88;5102334;28;20075;-48
2022/11/15 01:11:05;;;;;;;17.15;11.48;;;;;;;8.85;100.00;96247.41;5101995;28;20082;-42
2022/11/15 01:13:36;;;;;;;17.52;11.98;;;;;;;8.09;100.00;96245.34;5103185;28;20473;-47
2022/11/15 01:16:08;;;;;;;13.80;11.27;;;;;;;8.22;100.00;96234.56;5099193;28;20079;-41
2022/11/15 01:18:37;;;;;;;17.27;11.55;;;;;;;8.51;100.00;96231.22;5101808;28;20094;-42
2022/11/15 01:21:08;;;;;;;15.68;11.82;;;;;;;9.27;100.00;96229.47;5092800;28;20557;-45
2022/11/15 01:23:36;;;;;;;16.88;11.25;;;;;;;9.50;100.00;96229.16;5105020;28;20079;-47
2022/11/15 01:26:06;;;;;;;15.85;10.70;;;;;;;9.67;100.00;96230.16;5102758;28;20494;-41
2022/11/15 01:28:37;;;;;;;14.27;10.95;;;;;;;9.74;100.00;96218.94;5100152;28;20906;-42
2022/11/15 01:31:09;;;;;;;15.40;11.68;;;;;;;9.58;100.00;96223.97;5100961;28;20071;-45
2022/11/15 01:33:38;;;;;;;16.27;11.15;;;;;;;9.46;100.00;96215.44;5096179;28;20498;-44
2022/11/15 01:36:08;;;;;;;15.13;11.10;;;;;;;9.52;100.00;96214.03;5100109;28;20090;-48
2022/11/15 01:38:37;;;;;;;15.80;12.20;;;;;;;9.58;100.00;96207.38;5101299;28;20083;-48
2022/11/15 01:41:05;;;;;;;15.60;10.88;;;;;;;9.47;100.00;96208.38;5099568;28;20537;-43
2022/11/15 01:43:37;;;;;;;16.50;11.63;;;;;;;9.59;100.00;96199.31;5100233;28;21255;-42
2022/11/15 01:46:09;;;;;;;14.15;10.52;;;;;;;9.45;100.00;96197.97;5102005;28;20075;-48
2022/11/15 01:48:38;;;;;;;17.73;12.13;;;;;;;9.29;100.00;96205.66;5099599;28;20083;-44
2022/11/15 01:51:08;;;;;;;17.30;13.15;;;;;;;9.38;100.00;96198.69;5100920;28;20086;-45
2022/11/15 01:53:39;;;;;;;18.48;12.90;;;;;;;9.42;100.00;96197.44;5098342;28;20090;-47
2022/11/15 01:56:08;;;;;;;;;;;;;;;9.52;100.00;96195.59;5100404;28;20067;-48
2022/11/15 01:58:38;;;;;;;18.90;12.40;;;;;;;9.46;100.00;96193.53;5097868;28;19959;-47
2022/11/15 02:01:06;;;;;;;16.60;12.48;;;;;;;9.40;100.00;96187.06;5100526;28;20461;-46
2022/11/15 02:03:39;;;;;;;15.38;11.95;;;;;;;9.41;100.00;96185.25;5098868;28;20075;-43
2022/11/15 02:06:07;;;;;;;16.02;11.70;;;;;;;9.07;100.00;96185.75;5097658;28;20079;-42
2022/11/15 02:08:35;;;;;;;15.50;12.07;;;;;;;8.98;100.00;96189.25;5100104;28;20074;-49
2022/11/15 02:11:05;;;;;;;19.80;11.90;;;;;;;9.15;100.00;96183.28;5099954;28;20075;-43
2022/11/15 02:13:34;;;;;;;15.55;11.48;;;;;;;9.01;100.00;96174.00;5098256;28;20071;-46
2022/11/15 02:16:11;;;;;;;14.95;11.20;;;;;;;9.21;100.00;96177.41;5098791;28;20148;-44
2022/11/15 02:18:45;;;;;;;14.32;11.65;;;;;;;9.28;100.00;96180.31;5101438;28;20182;-42
2022/11/15 02:21:20;;;;;;;14.02;11.48;;;;;;;9.37;100.00;96168.09;5097927;28;20083;-44
2022/11/15 02:24:26;;;;;;;15.93;12.07;;;;;;;9.42;100.00;96166.69;5098014;28;20075;-44
2022/11/15 02:27:17;;;;;;;16.98;12.13;;;;;;;9.34;100.00;96163.94;5084974;28;20557;-45
2022/11/15 02:30:04;;;;;;;17.27;12.63;;;;;;;9.44;100.00;96158.66;5101164;28;20109;-43
2022/11/15 02:32:37;;;;;;;15.73;12.02;;;;;;;8.88;100.00;96162.13;5098942;28;20098;-45
2022/11/15 02:35:13;;;;;;;13.38;10.82;;;;;;;8.54;100.00;96165.25;5098669;28;20075;-43
2022/11/15 02:37:46;;;;;;;15.50;11.40;;;;;;;8.05;100.00;96161.69;5095288;28;20527;-45
2022/11/15 02:40:18;;;;;;;14.55;11.00;;;;;;;8.16;100.00;96164.22;5102197;28;20075;-44
2022/11/15 02:45:48;;;;;;;15.15;11.57;;;;;;;8.80;100.00;96161.03;5098953;28;20083;-42
2022/11/15 02:48:18;;;;;;;14.40;10.93;;;;;;;8.99;100.00;96151.47;5096851;28;20601;-47
2022/11/15 02:50:47;;;;;;;13.30;9.77;;;;;;;9.05;100.00;96148.28;5096713;28;20094;-46
2022/11/15 02:53:15;;;;;;;13.02;11.23;;;;;;;9.10;100.00;96150.47;5096117;28;20536;-46
2022/11/15 02:55:46;;;;;;;16.10;11.32;;;;;;;8.85;100.00;96150.13;5097631;28;20063;-45
2022/11/15 02:58:40;;;;;;;15.45;11.38;;;;;;;8.35;100.00;96152.06;5096774;28;20076;-42
2022/11/15 03:01:14;;;;;;;14.95;10.95;;;;;;;8.80;100.00;96153.16;5097726;28;20585;-44
2022/11/15 03:03:50;;;;;;;11.40;9.88;;;;;;;8.98;100.00;96141.91;5099171;28;20083;-44
2022/11/15 03:06:28;;;;;;;13.43;10.43;;;;;;;8.47;100.00;96149.19;5098845;28;20071;-47
2022/11/15 03:09:04;;;;;;;14.70;10.10;;;;;;;8.47;100.00;96145.75;5097266;28;20469;-45
2022/11/15 03:11:35;;;;;;;16.80;10.88;;;;;;;8.79;100.00;96143.59;5095349;28;20455;-45
2022/11/15 03:14:11;;;;;;;12.80;10.02;;;;;;;9.04;100.00;96141.34;5099976;28;20082;-42
2022/11/15 03:16:43;;;;;;;11.65;9.50;;;;;;;9.21;100.00;96135.31;5071668;28;20702;-44
2022/11/15 03:19:18;;;;;;;12.57;9.95;;;;;;;8.84;100.00;96147.59;5101899;28;20065;-45
2022/11/15 03:21:47;;;;;;;12.05;9.57;;;;;;;8.38;100.00;96144.75;5094143;28;20063;-44
2022/11/15 03:24:17;;;;;;;16.52;11.35;;;;;;;8.44;100.00;96144.22;5100507;28;20086;-46
2022/11/15 03:26:54;;;;;;;10.52;9.38;;;;;;;7.99;100.00;96147.34;5099568;28;20443;-44
2022/11/15 03:29:25;;;;;;;12.32;9.45;;;;;;;8.11;100.00;96131.44;5096003;28;20465;-46
2022/11/15 03:31:58;;;;;;;13.07;9.43;;;;;;;8.38;100.00;96125.53;5098786;28;20094;-44
2022/11/15 03:34:32;;;;;;;13.85;10.23;;;;;;;7.88;100.00;96126.47;5094367;28;20072;-46
2022/11/15 03:37:01;;;;;;;12.02;9.73;;;;;;;6.84;100.00;96133.69;5091062;28;20635;-45
2022/11/15 03:39:30;;;;;;;12.80;10.25;;;;;;;6.81;100.00;96139.22;5098083;28;20327;-43
2022/11/15 03:42:07;;;;;;;12.25;9.80;;;;;;;6.71;100.00;96134.84;5094102;28;20067;-42
2022/11/15 03:44:40;;;;;;;13.05;10.07;;;;;;;6.90;100.00;96127.94;5092987;28;20059;-42
2022/11/15 03:47:11;;;;;;;13.40;10.05;;;;;;;6.87;100.00;96119.50;5096607;28;20492;-45
2022/11/15 03:49:44;;;;;;;13.00;9.65;;;;;;;7.71;100.00;96114.84;5074593;28;20075;-41
2022/11/15 03:52:12;;;;;;;14.63;10.23;;;;;;;8.22;100.00;96115.56;5096958;28;20474;-45
2022/11/15 03:54:50;;;;;;;14.52;9.18;;;;;;;8.47;100.00;96122.91;5097885;28;20071;-44
2022/11/15 03:57:18;;;;;;;11.88;9.70;;;;;;;8.37;100.00;96123.88;5090772;28;20079;-43
2022/11/15 03:59:46;;;;;;;11.98;9.85;;;;;;;8.29;100.00;96114.03;5101155;28;20122;-44
2022/11/15 04:02:15;;;;;;;13.68;9.60;;;;;;;8.50;100.00;96109.50;5104637;28;20105;-44
2022/11/15 04:04:45;;;;;;;12.98;9.43;;;;;;;8.09;100.00;96114.03;5101121;28;20094;-42
2022/11/15 04:07:13;;;;;;;15.20;9.53;;;;;;;8.19;100.00;96108.81;5095831;28;20529;-42
2022/11/15 04:12:31;;;;;;;12.85;9.48;;;;;;;8.47;100.00;96107.16;5104332;28;20443;-45
2022/11/15 04:15:09;;;;;;;11.88;9.48;;;;;;;8.61;100.00;96095.38;5105768;28;20071;-43
2022/11/15 04:17:40;;;;;;;11.77;8.77;;;;;;;8.77;100.00;96100.88;5104385;28;20078;-43
2022/11/15 04:25:46;;;;;;;15.07;10.02;;;;;;;8.35;100.00;96091.63;5101483;28;20453;-42
2022/11/15 04:28:14;;;;;;;12.50;9.73;;;;;;;8.35;100.00;96086.38;5100850;28;20551;-42
2022/11/15 04:30:43;;;;;;;11.50;9.15;;;;;;;8.47;100.00;96080.88;5101297;28;20071;-42
2022/11/15 04:33:11;;;;;;;13.07;9.50;;;;;;;8.61;100.00;96079.59;5105227;28;20086;-43
2022/11/15 04:35:42;;;;;;;12.30;9.30;;;;;;;8.61;100.00;96090.13;5097931;28;20099;-47
2022/11/15 04:38:09;;;;;;;;;;;;;;;8.25;100.00;96079.31;5098207;28;20060;-48
2022/11/15 04:40:38;;;;;;;13.02;9.52;;;;;;;8.02;100.00;96072.72;5099283;28;19990;-42
2022/11/15 04:43:06;;;;;;;15.43;10.40;;;;;;;7.89;100.00;96072.16;5102823;28;20075;-47
2022/11/15 04:45:35;;;;;;;13.20;10.02;;;;;;;8.00;100.00;96075.47;5102832;28;20083;-42
2022/11/15 04:48:03;;;;;;;13.82;10.20;;;;;;;6.98;100.00;96069.59;5085331;28;20055;-43
2022/11/15 04:50:32;;;;;;;12.30;9.60;;;;;;;6.27;100.00;96074.75;5098538;28;20567;-41
2022/11/15 04:53:01;;;;;;;13.00;10.02;;;;;;;6.98;100.00;96064.34;5100133;28;20071;-44
2022/11/15 04:55:30;;;;;;;13.65;10.45;;;;;;;6.66;100.00;96064.50;5101128;28;20068;-44
2022/11/15 04:58:00;;;;;;;16.45;12.57;;;;;;;6.79;100.00;96062.50;5095383;28;20068;-42
2022/11/15 05:00:29;;;;;;;17.35;13.95;;;;;;;7.27;100.00;96061.84;5094636;28;20078;-48
2022/11/15 05:05:44;;;;;;;15.88;11.48;;;;;;;8.23;100.00;96057.66;5096347;28;20442;-43
2022/11/15 05:08:13;;;;;;;14.45;11.65;;;;;;;8.49;100.00;96062.31;5099265;28;20086;-41
2022/11/15 05:10:42;;;;;;;14.50;11.05;;;;;;;7.47;100.00;96080.25;5100161;28;20090;-43
2022/11/15 05:13:10;;;;;;;12.18;9.80;;;;;;;6.88;100.00;96087.06;5102149;28;20480;-47
2022/11/15 05:15:39;;;;;;;12.63;10.05;;;;;;;6.47;100.00;96086.19;5102893;28;20089;-45
2022/11/15 05:18:07;;;;;;;13.55;10.40;;;;;;;7.21;100.00;96085.16;5101583;28;20157;-42
2022/11/15 05:20:35;;;;;;;17.38;10.45;;;;;;;7.44;100.00;96080.53;5103605;28;20075;-49
2022/11/15 05:23:04;;;;;;;13.75;10.27;;;;;;;7.61;100.00;96077.25;5098178;28;20084;-43
2022/11/15 05:25:34;;;;;;;13.30;10.25;;;;;;;7.87;100.00;96068.84;5102204;28;20083;-48
2022/11/15 05:28:02;;;;;;;13.35;10.55;;;;;;;7.68;100.00;96067.88;5100144;28;20102;-47
2022/11/15 05:30:31;;;;;;;15.05;10.75;;;;;;;7.40;100.00;96069.47;5104338;28;20530;-45
2022/11/15 05:32:59;;;;;;;14.07;10.43;;;;;;;7.43;100.00;96063.94;5102600;28;20082;-42
2022/11/15 05:35:31;;;;;;;13.60;11.13;;;;;;;7.52;100.00;96054.44;5101483;28;20079;-41
2022/11/15 05:38:00;;;;;;;15.02;11.27;;;;;;;7.18;100.00;96049.53;5101378;28;20083;-46
2022/11/15 05:40:29;;;;;;;17.13;11.73;;;;;;;6.97;100.00;96048.78;5099856;28;20102;-42
2022/11/15 05:43:01;;;;;;;18.77;12.70;;;;;;;7.27;100.00;96043.50;5099531;28;21814;-42
2022/11/15 05:45:30;;;;;;;18.17;12.57;;;;;;;6.97;100.00;96046.16;5097547;28;20075;-48
2022/11/15 05:47:59;;;;;;;16.40;11.35;;;;;;;7.14;100.00;96042.91;5103210;28;20102;-41
2022/11/15 05:50:28;;;;;;;15.25;11.15;;;;;;;7.41;100.00;96047.53;5101912;28;20075;-42
2022/11/15 05:52:57;;;;;;;15.52;11.43;;;;;;;7.90;100.00;96040.50;5096698;28;20086;-48
2022/11/15 05:55:32;;;;;;;14.98;11.18;;;;;;;8.28;100.00;96042.28;5097057;28;20087;-47
2022/11/15 05:58:02;;;;;;;14.77;10.93;;;;;;;8.38;100.00;96042.28;5096936;28;20086;-44
2022/11/15 06:00:30;;;;;;;16.85;11.77;;;;;;;8.18;100.00;96041.47;5096502;28;20070;-45
2022/11/15 06:02:59;;;;;;;14.68;11.10;;;;;;;8.21;100.00;96030.69;5096935;28;20076;-43
2022/11/15 06:05:27;;;;;;;14.48;10.70;;;;;;;7.96;100.00;96031.25;5098912;28;20094;-45
2022/11/15 06:07:58;;;;;;;20.73;10.85;;;;;;;8.06;100.00;96029.47;5101754;28;20086;-43
2022/11/15 06:10:26;;;;;;;15.60;11.23;;;;;;;8.61;100.00;96016.53;5103766;28;20106;-48
2022/11/15 06:12:58;;;;;;;17.88;10.82;;;;;;;8.76;100.00;96020.34;5096759;28;20078;-47
2022/11/15 06:15:28;;;;;;;15.23;11.20;;;;;;;8.80;100.00;96019.06;5104477;28;20090;-44
2022/11/15 06:17:58;;;;;;;17.00;12.07;;;;;;;8.85;100.00;96021.28;5101942;28;20079;-43
2022/11/15 06:20:28;;;;;;;16.58;11.57;;;;;;;8.33;100.00;96029.56;5098016;28;20568;-44
2022/11/15 06:22:58;;;;;;;14.40;10.82;;;;;;;7.50;100.00;96044.09;5094000;28;20795;-41
2022/11/15 06:25:27;;;;;;;;;;;;;;;7.97;100.00;96032.91;5102812;28;20090;-43
2022/11/15 06:27:56;;;;;;;15.52;11.13;;;;;;;7.34;100.00;96049.84;5099275;28;20351;-40
2022/11/15 06:30:26;;;;;;;17.20;11.02;;;;;;;7.56;100.00;96047.94;5098127;28;20062;-42
2022/11/15 06:33:02;;;;;;;18.33;11.57;;;;;;;7.76;100.00;96035.69;5099555;28;20086;-44
2022/11/15 06:35:31;;;;;;;15.48;11.50;;;;;;;7.25;100.00;96037.53;5099126;28;20094;-49
2022/11/15 06:38:03;;;;;;;17.08;12.23;;;;;;;7.12;100.00;96035.19;5096781;28;20509;-46
2022/11/15 06:40:34;;;;;;;18.20;11.43;;;;;;;7.25;100.00;96029.66;5099639;28;20060;-45
2022/11/15 06:43:03;;;;;;;14.32;11.18;;;;;;;6.61;100.00;96030.84;5101600;28;20087;-46
2022/11/15 06:45:32;;;;;;;29.02;16.67;;;;;;;6.82;100.00;96027.34;5100018;28;20090;-47
2022/11/15 06:48:02;;;;;;;39.33;19.95;;;;;;;6.84;100.00;96020.97;5096209;28;20080;-50
2022/11/15 06:50:30;;;;;;;33.60;18.10;;;;;;;7.01;100.00;96014.28;5100852;28;20082;-44
2022/11/15 06:53:02;;;;;;;22.58;14.80;;;;;;;7.10;100.00;96025.78;5093199;28;20090;-45
2022/11/15 06:55:31;;;;;;;15.88;12.32;;;;;;;7.54;100.00;96032.34;5100422;28;20497;-43
2022/11/15 06:57:59;;;;;;;19.70;12.18;;;;;;;8.45;100.00;96032.06;5094154;28;20078;-45
2022/11/15 07:00:27;;;;;;;17.27;12.48;;;;;;;8.39;100.00;96029.97;5098950;28;20075;-47
2022/11/15 07:02:56;;;;;;;18.58;12.98;;;;;;;8.53;100.00;96025.13;5096720;28;20521;-42
2022/11/15 07:05:26;;;;;;;20.00;13.13;;;;;;;8.80;100.00;96026.94;5100693;28;20078;-43
2022/11/15 07:07:55;;;;;;;19.45;12.32;;;;;;;8.86;100.00;96030.81;5098693;28;20075;-42
2022/11/15 07:10:25;;;;;;;17.65;12.60;;;;;;;9.03;100.00;96026.59;5080666;28;20109;-44
2022/11/15 07:12:53;;;;;;;17.73;12.27;;;;;;;9.13;100.00;96032.63;5093355;28;20059;-44
2022/11/15 07:15:24;;;;;;;15.25;10.88;;;;;;;9.20;100.00;96031.06;5100899;28;20453;-46
2022/11/15 07:17:52;;;;;;;;;;;;;;;9.37;100.00;96034.72;5104922;28;20089;-41
2022/11/15 07:20:21;;;;;;;15.73;10.77;;;;;;;9.31;100.00;96029.22;5099592;28;20419;-43
2022/11/15 07:22:50;;;;;;;14.70;9.75;;;;;;;9.40;100.00;96031.81;5099278;28;20075;-43
2022/11/15 07:25:19;;;;;;;15.35;11.70;;;;;;;9.45;100.00;96031.34;5097449;28;20080;-44
2022/11/15 07:27:55;;;;;;;17.30;12.38;;;;;;;9.68;100.00;96023.84;5098418;28;20062;-46
2022/11/15 07:30:24;;;;;;;15.70;11.20;;;;;;;9.54;100.00;96025.19;5081012;28;20528;-43
2022/11/15 07:32:54;;;;;;;19.25;11.50;;;;;;;9.67;100.00;96022.19;5098315;28;20126;-48
2022/11/15 07:35:22;;;;;;;18.13;12.40;;;;;;;9.83;100.00;96011.81;5097023;28;20435;-44
2022/11/15 07:37:56;;;;;;;15.43;11.68;;;;;;;10.07;100.00;96013.81;5099434;28;20063;-45
2022/11/15 07:40:25;;;;;;;14.68;11.35;;;;;;;10.15;100.00;96008.63;5095544;28;20068;-41
2022/11/15 07:42:56;;;;;;;13.73;10.30;;;;;;;10.08;100.00;96012.00;5100552;28;20074;-43
2022/11/15 07:45:26;;;;;;;13.98;10.40;;;;;;;9.82;100.00;96028.59;5100160;28;20071;-42
2022/11/15 07:47:55;;;;;;;14.02;10.88;;;;;;;9.99;100.00;96027.75;5099442;28;20546;-44
2022/11/15 07:50:25;;;;;;;17.13;10.73;;;;;;;9.93;100.00;96028.38;5098001;28;20575;-46
2022/11/15 07:52:58;;;;;;;12.38;10.30;;;;;;;10.07;100.00;96029.63;5095152;28;20091;-44
2022/11/15 07:55:29;;;;;;;15.00;10.57;;;;;;;10.13;100.00;96028.22;5100481;28;20091;-45
2022/11/15 07:58:01;;;;;;;;;;;;;;;10.54;100.00;96025.91;5097113;28;20490;-42
2022/11/15 08:00:29;;;;;;;15.75;10.82;;;;;;;10.58;100.00;96020.16;5095288;28;19955;-45
2022/11/15 08:03:05;;;;;;;15.32;11.25;;;;;;;10.82;100.00;96019.47;5094802;28;20148;-42
2022/11/15 08:05:34;;;;;;;15.82;10.80;;;;;;;10.92;100.00;96019.34;5100886;28;20177;-43
2022/11/15 08:08:04;;;;;;;17.00;11.38;;;;;;;10.82;100.00;96018.66;5096638;28;20540;-47
2022/11/15 08:10:33;;;;;;;17.10;11.20;;;;;;;11.00;100.00;96021.19;5097317;28;20082;-50
2022/11/15 08:13:09;;;;;;;13.77;10.82;;;;;;;11.22;100.00;96012.75;5099754;28;20079;-43
2022/11/15 08:15:38;;;;;;;15.18;11.07;;;;;;;11.37;100.00;96010.31;5094268;28;20075;-46
2022/11/15 08:18:10;;;;;;;15.10;11.35;;;;;;;11.03;100.00;96007.69;5083942;28;20082;-46
2022/11/15 08:20:38;;;;;;;15.50;11.35;;;;;;;11.12;100.00;95993.56;5097253;28;20519;-50
2022/11/15 08:23:08;;;;;;;14.38;10.82;;;;;;;11.49;100.00;95989.69;5098955;28;20082;-45
2022/11/15 08:25:37;;;;;;;13.70;10.77;;;;;;;11.73;100.00;95991.56;5098339;28;20079;-45
2022/11/15 08:28:06;;;;;;;16.85;11.30;;;;;;;11.89;100.00;95988.97;5099561;28;20078;-42
2022/11/15 08:30:37;;;;;;;17.25;11.43;;;;;;;11.81;100.00;96002.16;5099924;28;20101;-42
2022/11/15 08:33:05;;;;;;;13.48;10.13;;;;;;;12.04;100.00;95994.41;5096973;28;20485;-43
2022/11/15 08:35:34;;;;;;;16.17;10.43;;;;;;;12.34;100.00;95985.81;5095185;28;20086;-48
2022/11/15 08:38:02;;;;;;;13.45;10.50;;;;;;;11.85;100.00;95977.91;5100942;28;20080;-45
2022/11/15 08:40:32;;;;;;;14.10;10.25;;;;;;;12.21;100.00;95968.81;5098459;28;20075;-47
2022/11/15 08:43:02;;;;;;;12.13;10.38;;;;;;;12.54;100.00;95966.94;5099209;28;20710;-47
2022/11/15 08:45:30;;;;;;;13.07;9.55;;;;;;;12.42;100.00;95957.69;5098423;28;20094;-47
2022/11/15 08:47:59;;;;;;;11.52;9.32;;;;;;;12.45;100.00;95949.44;5102834;28;20101;-47
2022/11/15 08:50:27;;;;;;;11.45;9.38;;;;;;;12.11;100.00;95948.69;5101724;28;20454;-45
2022/11/15 08:52:55;;;;;;;10.13;8.75;;;;;;;12.40;100.00;95941.19;5097275;28;20095;-45
2022/11/15 08:55:24;;;;;;;12.05;8.73;;;;;;;12.04;100.00;95946.84;5096888;28;20083;-42
2022/11/15 08:57:53;;;;;;;12.35;8.68;;;;;;;12.70;100.00;95937.81;5103014;28;20075;-44
2022/11/15 09:00:22;;;;;;;12.53;9.03;;;;;;;12.82;100.00;95940.91;5100041;28;20083;-42
2022/11/15 09:02:51;;;;;;;11.10;8.65;;;;;;;12.78;100.00;95947.53;5102210;28;20504;-48
2022/11/15 09:05:20;;;;;;;12.02;8.75;;;;;;;13.56;100.00;95943.19;5101461;28;20078;-46
2022/11/15 09:07:48;;;;;;;12.02;8.88;;;;;;;13.38;100.00;95936.34;5099813;28;20079;-42
2022/11/15 09:10:17;;;;;;;10.73;8.48;;;;;;;13.72;100.00;95937.78;5095204;28;20565;-47
2022/11/15 09:12:48;;;;;;;10.27;8.88;;;;;;;13.70;100.00;95932.66;5103664;28;20094;-46
2022/11/15 09:15:19;;;;;;;10.80;8.30;;;;;;;13.74;100.00;95931.31;5106720;28;20087;-46
2022/11/15 09:17:47;;;;;;;12.57;9.00;;;;;;;14.32;100.00;95936.13;5100186;28;20079;-43
2022/11/15 09:20:16;;;;;;;10.55;8.10;;;;;;;14.51;100.00;95932.16;5099246;28;20113;-44
2022/11/15 09:22:45;;;;;;;9.13;7.38;;;;;;;14.49;99.59;95932.31;5095797;28;20486;-45
2022/11/15 09:25:13;;;;;;;8.77;7.65;;;;;;;14.72;99.54;95926.94;5098639;28;20079;-42
2022/11/15 09:27:41;;;;;;;7.95;6.70;;;;;;;14.67;97.58;95921.34;5102444;28;20196;-45
2022/11/15 09:30:11;;;;;;;8.10;6.63;;;;;;;14.87;91.02;95917.16;5094666;28;20079;-42
2022/11/15 09:32:41;;;;;;;7.28;6.43;;;;;;;15.04;92.31;95925.72;5098685;28;20080;-45
2022/11/15 09:35:09;;;;;;;7.63;6.85;;;;;;;15.06;91.20;95920.22;5099120;28;20075;-46
2022/11/15 09:37:37;;;;;;;10.18;6.60;;;;;;;15.38;88.27;95913.63;5096986;28;20086;-45
2022/11/15 09:40:09;;;;;;;8.18;6.57;;;;;;;15.08;91.06;95916.38;5100742;28;20087;-45
2022/11/15 09:42:49;;;;;;;8.73;6.50;;;;;;;15.09;90.47;95906.56;5098751;28;20067;-45
2022/11/15 09:45:21;;;;;;;6.68;5.97;;;;;;;15.27;91.83;95906.97;5099281;28;20105;-46
2022/11/15 09:48:01;;;;;;;8.80;6.57;;;;;;;14.61;98.22;95903.50;5096697;28;20093;-48
2022/11/15 09:50:35;;;;;;;7.72;6.65;;;;;;;14.47;100.00;95897.97;5095773;28;20569;-48
2022/11/15 09:53:03;;;;;;;7.53;6.20;;;;;;;14.81;96.30;95890.50;5097549;28;20075;-46
2022/11/15 09:55:38;;;;;;;7.25;6.00;;;;;;;14.82;95.88;95884.19;5098399;28;20537;-42
2022/11/15 09:58:14;;;;;;;6.78;6.07;;;;;;;15.04;95.09;95879.78;5102236;28;20087;-44
2022/11/15 10:00:46;;;;;;;8.05;6.55;;;;;;;15.23;94.76;95878.34;5098477;28;20090;-50
2022/11/15 10:03:27;;;;;;;7.10;6.40;;;;;;;15.41;97.03;95873.41;5096826;28;20075;-42
2022/11/15 10:05:58;;;;;;;9.65;6.78;;;;;;;15.74;92.66;95871.09;5098093;28;20513;-45
2022/11/15 10:08:38;;;;;;;8.13;6.80;;;;;;;15.25;95.28;95874.50;5097572;28;20075;-52
2022/11/15 10:11:09;;;;;;;9.10;6.18;;;;;;;15.13;100.00;95865.34;5094768;28;20637;-48
2022/11/15 10:14:01;;;;;;;7.50;6.63;;;;;;;14.87;100.00;95856.09;5095975;28;20087;-48
2022/11/15 10:17:08;;;;;;;8.27;6.53;;;;;;;15.80;92.96;95849.06;5098229;28;20084;-47
2022/11/15 10:19:42;;;;;;;7.88;6.10;;;;;;;15.06;100.00;95845.88;5102166;28;20082;-44
2022/11/15 10:22:19;;;;;;;8.85;7.10;;;;;;;15.33;100.00;95837.16;5101916;28;20197;-44
2022/11/15 10:24:48;;;;;;;9.07;6.60;;;;;;;14.82;100.00;95841.72;5099160;28;20088;-50
2022/11/15 10:27:18;;;;;;;9.40;6.93;;;;;;;15.10;100.00;95831.19;5099197;28;20075;-45
2022/11/15 10:29:49;;;;;;;7.22;6.20;;;;;;;15.12;100.00;95830.00;5099430;28;20728;-47
2022/11/15 10:32:19;;;;;;;9.48;7.30;;;;;;;15.79;97.52;95818.16;5097742;28;20067;-44
2022/11/15 10:34:50;;;;;;;9.55;7.07;;;;;;;15.62;99.05;95809.66;5101157;28;20079;-43
2022/11/15 10:37:28;;;;;;;8.32;7.13;;;;;;;16.01;100.00;95808.31;5096740;28;20075;-48
2022/11/15 10:40:07;;;;;;;12.68;7.30;;;;;;;16.14;99.17;95804.94;5097988;28;20075;-49
2022/11/15 10:42:36;;;;;;;8.70;7.80;;;;;;;15.43;100.00;95805.78;5098140;28;20086;-48
2022/11/15 10:45:24;;;;;;;8.55;7.18;;;;;;;15.95;99.78;95794.97;5097573;28;20530;-42
2022/11/15 10:47:53;;;;;;;7.78;6.82;;;;;;;15.53;100.00;95786.88;5095819;28;20086;-50
2022/11/15 10:50:29;;;;;;;9.95;7.63;;;;;;;16.25;94.93;95782.28;5098764;28;20552;-49
2022/11/15 10:52:58;;;;;;;9.07;7.05;;;;;;;16.67;93.67;95783.09;5096071;28;20102;-48
2022/11/15 10:55:28;;;;;;;8.30;6.90;;;;;;;15.83;100.00;95789.38;5098934;28;20079;-44
2022/11/15 10:58:00;;;;;;;12.82;7.00;;;;;;;15.80;100.00;95784.47;5097966;28;20076;-45
2022/11/15 11:00:32;;;;;;;9.85;7.15;;;;;;;16.20;100.00;95782.84;5094512;28;20653;-42
2022/11/15 11:03:03;;;;;;;7.65;6.78;;;;;;;16.85;92.28;95780.72;5093747;28;20076;-49
2022/11/15 11:05:34;;;;;;;10.20;6.82;;;;;;;17.25;87.90;95773.63;5100704;28;20079;-45
2022/11/15 11:08:22;;;;;;;9.65;6.63;;;;;;;17.31;85.59;95769.34;5095606;28;20133;-46
2022/11/15 11:10:53;;;;;;;8.57;6.70;;;;;;;17.01;89.31;95769.69;5098367;28;20083;-42
2022/11/15 11:13:30;;;;;;;7.45;6.60;;;;;;;17.11;88.68;95763.97;5094955;28;20545;-46
2022/11/15 11:16:07;;;;;;;10.30;6.78;;;;;;;16.93;91.74;95756.56;5093325;28;20087;-44
2022/11/15 11:18:40;;;;;;;9.00;6.82;;;;;;;17.46;89.53;95747.81;5095680;28;20109;-42
2022/11/15 11:21:12;;;;;;;7.78;6.97;;;;;;;16.43;98.29;95755.97;5099897;28;20094;-49
2022/11/15 11:23:48;;;;;;;7.85;6.65;;;;;;;16.57;100.00;95749.66;5095726;28;20076;-46
2022/11/15 11:26:37;;;;;;;7.70;6.30;;;;;;;17.54;86.15;95744.94;5098316;28;20075;-46
2022/11/15 11:29:19;;;;;;;9.57;6.28;;;;;;;17.67;86.33;95734.25;5097295;28;20556;-46
2022/11/15 11:31:52;;;;;;;9.02;6.40;;;;;;;18.19;82.13;95743.22;5096592;28;20064;-46
2022/11/15 11:34:32;;;;;;;6.85;6.15;;;;;;;17.73;88.22;95727.28;5098932;28;20161;-46
2022/11/15 11:37:05;;;;;;;10.03;6.87;;;;;;;17.67;92.82;95726.25;5094911;28;20079;-43
2022/11/15 11:39:42;;;;;;;7.25;6.18;;;;;;;17.62;94.86;95722.56;5102355;28;20513;-50
2022/11/15 11:42:17;;;;;;;7.10;6.28;;;;;;;17.99;87.85;95726.44;5096753;28;20102;-47
2022/11/15 11:44:55;;;;;;;8.13;6.22;;;;;;;16.96;99.55;95729.50;5097473;28;20088;-48
2022/11/15 11:47:25;;;;;;;7.35;6.30;;;;;;;18.03;86.16;95717.81;5096571;28;20075;-43
2022/11/15 11:49:57;;;;;;;7.57;6.55;;;;;;;17.98;90.57;95719.47;5098044;28;20124;-44
2022/11/15 11:52:31;;;;;;;7.00;6.00;;;;;;;17.64;91.89;95724.00;5095690;28;20086;-42
2022/11/15 11:55:03;;;;;;;8.85;6.93;;;;;;;18.21;84.44;95711.81;5093506;28;20071;-48